createdAt,value
2023-02-04T00:00:15.418Z,0.00
2023-02-04T00:03:02.507Z,0.50
2023-02-04T00:05:30.050Z,-0.50
2023-02-04T00:07:57.846Z,-0.20
2023-02-04T00:10:25.343Z,-0.30
2023-02-04T00:12:56.688Z,-0.50
2023-02-04T00:15:24.736Z,-0.20
2023-02-04T00:17:51.795Z,0.10
2023-02-04T00:20:19.857Z,-0.30
2023-02-04T00:22:48.835Z,-0.20
2023-02-04T00:25:20.110Z,-0.50
2023-02-04T00:27:47.138Z,-0.30
2023-02-04T00:30:14.670Z,-0.10
2023-02-04T00:32:41.662Z,-0.30
2023-02-04T00:35:13.579Z,-0.10
2023-02-04T00:40:15.002Z,-0.50
2023-02-04T00:42:42.227Z,-0.60
2023-02-04T00:45:11.162Z,-0.10
2023-02-04T00:47:38.786Z,-0.50
2023-02-04T00:50:06.595Z,-0.30
2023-02-04T00:52:33.795Z,-0.60
2023-02-04T00:57:28.807Z,-0.70
2023-02-04T00:59:56.266Z,-0.30
2023-02-04T01:02:23.371Z,-1.10
2023-02-04T01:04:52.213Z,-1.40
2023-02-04T01:09:47.249Z,-0.20
2023-02-04T01:12:14.251Z,-0.70
2023-02-04T01:14:41.739Z,-0.60
2023-02-04T01:17:08.836Z,-0.50
2023-02-04T01:19:36.138Z,-0.50
2023-02-04T01:22:03.097Z,-0.60
2023-02-04T01:24:30.458Z,-0.40
2023-02-04T01:27:16.334Z,-0.40
2023-02-04T01:29:43.869Z,-0.80
2023-02-04T01:34:38.635Z,-0.50
2023-02-04T01:42:04.336Z,-0.80
2023-02-04T01:44:31.924Z,-0.80
2023-02-04T01:46:59.171Z,-0.90
2023-02-04T01:49:27.105Z,-1.00
2023-02-04T01:54:22.083Z,-0.90
2023-02-04T01:56:51.590Z,-0.50
2023-02-04T01:59:19.496Z,-0.90
2023-02-04T02:01:49.681Z,-0.70
2023-02-04T02:04:31.262Z,-1.10
2023-02-04T02:07:05.623Z,-1.00
2023-02-04T02:09:34.198Z,-0.90
2023-02-04T02:12:03.180Z,-1.30
2023-02-04T02:14:30.659Z,-1.00
2023-02-04T02:16:58.083Z,-1.20
2023-02-04T02:19:36.001Z,-1.40
2023-02-04T02:22:05.387Z,-1.10
2023-02-04T02:24:35.133Z,-1.30
2023-02-04T02:27:07.246Z,-0.50
2023-02-04T02:29:35.512Z,-0.90
2023-02-04T02:32:02.632Z,-1.70
2023-02-04T02:34:30.642Z,-0.70
2023-02-04T02:36:59.424Z,-1.30
2023-02-04T02:41:56.176Z,-1.30
2023-02-04T02:44:24.936Z,-1.10
2023-02-04T02:46:53.210Z,-1.20
2023-02-04T02:49:21.229Z,-1.40
2023-02-04T02:51:48.838Z,-1.20
2023-02-04T02:54:26.628Z,-0.90
2023-02-04T02:56:57.607Z,-1.10
2023-02-04T02:59:25.966Z,-0.90
2023-02-04T03:01:57.992Z,-0.90
2023-02-04T03:04:29.995Z,-1.10
2023-02-04T03:06:57.315Z,-0.90
2023-02-04T03:09:30.107Z,-1.20
2023-02-04T03:11:57.513Z,-1.30
2023-02-04T03:14:26.198Z,-1.70
2023-02-04T03:16:55.173Z,-1.20
2023-02-04T03:19:24.559Z,-1.00
2023-02-04T03:21:52.010Z,-1.60
2023-02-04T03:26:46.881Z,-1.50
2023-02-04T03:29:14.427Z,-1.50
2023-02-04T03:34:09.306Z,-1.40
2023-02-04T03:36:36.686Z,-1.70
2023-02-04T03:39:06.765Z,-1.40
2023-02-04T03:41:33.969Z,-1.60
2023-02-04T03:44:01.244Z,-1.70
2023-02-04T03:46:28.863Z,-2.20
2023-02-04T03:48:56.249Z,-1.40
2023-02-04T03:51:23.296Z,-1.30
2023-02-04T03:53:50.583Z,-1.70
2023-02-04T03:56:17.675Z,-1.40
2023-02-04T03:58:45.026Z,-1.90
2023-02-04T04:01:14.663Z,-1.60
2023-02-04T04:03:42.070Z,-1.70
2023-02-04T04:06:10.846Z,-1.60
2023-02-04T04:08:38.903Z,-1.70
2023-02-04T04:11:06.034Z,-1.80
2023-02-04T04:13:35.448Z,-2.10
2023-02-04T04:16:05.052Z,-1.70
2023-02-04T04:18:33.548Z,-2.30
2023-02-04T04:21:00.573Z,-2.60
2023-02-04T04:23:28.023Z,-2.00
2023-02-04T04:25:55.077Z,-2.40
2023-02-04T04:28:22.522Z,-2.20
2023-02-04T04:30:49.558Z,-2.10
2023-02-04T04:33:16.976Z,-2.10
2023-02-04T04:35:43.970Z,-2.10
2023-02-04T04:38:11.360Z,-2.20
2023-02-04T04:40:38.364Z,-1.70
2023-02-04T04:43:07.995Z,-2.20
2023-02-04T04:48:02.756Z,-2.40
2023-02-04T04:50:30.110Z,-2.20
2023-02-04T04:52:57.679Z,-2.40
2023-02-04T04:55:24.685Z,-1.40
2023-02-04T04:57:54.990Z,-2.70
2023-02-04T05:00:22.549Z,-2.50
2023-02-04T05:02:49.903Z,-2.70
2023-02-04T05:05:17.077Z,-2.40
2023-02-04T05:10:11.806Z,-2.50
2023-02-04T05:12:39.197Z,-1.80
2023-02-04T05:17:34.170Z,-2.80
2023-02-04T05:20:01.230Z,-2.80
2023-02-04T05:22:28.573Z,-3.40
2023-02-04T05:24:55.668Z,-2.90
2023-02-04T05:27:23.174Z,-2.60
2023-02-04T05:29:50.085Z,-2.90
2023-02-04T05:32:17.361Z,-2.70
2023-02-04T05:34:44.387Z,-2.80
2023-02-04T05:42:06.934Z,-3.00
2023-02-04T05:44:33.928Z,-3.10
2023-02-04T05:47:01.301Z,-3.00
2023-02-04T05:59:22.944Z,-3.10
2023-02-04T06:01:50.443Z,-3.10
2023-02-04T06:04:17.942Z,-3.00
2023-02-04T06:06:45.570Z,-2.40
2023-02-04T06:11:40.784Z,-2.80
2023-02-04T06:14:07.972Z,-2.00
2023-02-04T06:16:35.438Z,-2.60
2023-02-04T06:19:02.734Z,-2.70
2023-02-04T06:23:57.762Z,-2.90
2023-02-04T06:26:25.034Z,-2.80
2023-02-04T06:33:47.238Z,-2.90
2023-02-04T06:36:14.826Z,-3.00
2023-02-04T06:38:41.944Z,-3.00
2023-02-04T06:41:09.279Z,-3.00
2023-02-04T06:43:36.299Z,-2.70
2023-02-04T06:46:03.606Z,-2.90
2023-02-04T06:48:31.229Z,-2.70
2023-02-04T06:50:58.697Z,-2.70
2023-02-04T06:53:25.743Z,-2.70
2023-02-04T06:55:53.223Z,-2.70
2023-02-04T06:58:20.305Z,-2.20
2023-02-04T07:00:47.807Z,-2.70
2023-02-04T07:03:14.799Z,-1.50
2023-02-04T07:05:42.196Z,-2.70
2023-02-04T07:08:09.424Z,-2.20
2023-02-04T07:10:37.162Z,-2.10
2023-02-04T07:15:32.086Z,-1.50
2023-02-04T07:18:00.191Z,-1.60
2023-02-04T07:20:28.030Z,-1.80
2023-02-04T07:22:57.187Z,-1.40
2023-02-04T07:25:24.604Z,-1.40
2023-02-04T07:27:51.636Z,-1.10
2023-02-04T07:30:20.241Z,-1.00
2023-02-04T07:32:47.204Z,-1.30
2023-02-04T07:35:14.795Z,-1.70
2023-02-04T07:37:41.811Z,-1.00
2023-02-04T07:40:10.603Z,-1.30
2023-02-04T07:42:37.855Z,-1.90
2023-02-04T07:45:11.434Z,-1.50
2023-02-04T07:47:38.430Z,-1.20
2023-02-04T07:50:06.958Z,-1.50
2023-02-04T07:52:34.154Z,-0.20
2023-02-04T07:55:01.616Z,-0.80
2023-02-04T07:57:30.054Z,-1.00
2023-02-04T08:04:53.162Z,-0.30
2023-02-04T08:07:20.240Z,-0.30
2023-02-04T08:09:47.560Z,-0.80
2023-02-04T08:12:14.582Z,-0.30
2023-02-04T08:14:41.860Z,-0.20
2023-02-04T08:17:08.871Z,-0.20
2023-02-04T08:19:36.157Z,-0.40
2023-02-04T08:22:04.260Z,0.00
2023-02-04T08:24:31.956Z,0.50
2023-02-04T08:31:56.795Z,0.60
2023-02-04T08:39:19.393Z,0.30
2023-02-04T08:41:46.550Z,0.30
2023-02-04T08:44:13.816Z,0.50
2023-02-04T08:46:41.044Z,0.00
2023-02-04T08:49:08.391Z,0.50
2023-02-04T08:51:35.453Z,0.30
2023-02-04T08:56:31.163Z,0.00
2023-02-04T08:58:58.490Z,0.80
2023-02-04T09:01:25.531Z,0.10
2023-02-04T09:03:52.969Z,0.30
2023-02-04T09:06:19.960Z,0.60
2023-02-04T09:11:14.950Z,0.90
2023-02-04T09:16:10.813Z,1.30
2023-02-04T09:18:38.657Z,1.20
2023-02-04T09:21:05.773Z,1.10
2023-02-04T09:23:33.044Z,1.20
2023-02-04T09:26:01.366Z,0.80
2023-02-04T09:28:28.989Z,0.80
2023-02-04T09:30:56.238Z,0.80
2023-02-04T09:33:24.156Z,1.00
2023-02-04T09:35:52.744Z,0.40
2023-02-04T09:38:22.006Z,0.70
2023-02-04T09:40:54.588Z,0.60
2023-02-04T09:43:27.736Z,1.10
2023-02-04T09:45:55.505Z,0.70
2023-02-04T09:48:24.620Z,0.70
2023-02-04T09:50:52.892Z,0.70
2023-02-04T09:53:25.703Z,1.00
2023-02-04T09:55:53.056Z,0.70
2023-02-04T09:58:22.593Z,0.60
2023-02-04T10:00:59.237Z,1.20
2023-02-04T10:03:26.939Z,1.80
2023-02-04T10:08:31.285Z,1.00
2023-02-04T10:10:58.364Z,1.00
2023-02-04T10:13:36.135Z,1.10
2023-02-04T10:16:11.030Z,0.70
2023-02-04T10:21:20.818Z,0.90
2023-02-04T10:23:51.413Z,1.30
2023-02-04T10:26:20.492Z,1.10
2023-02-04T10:28:49.739Z,0.80
2023-02-04T10:31:30.010Z,1.20
2023-02-04T10:34:13.983Z,0.80
2023-02-04T10:36:43.417Z,0.80
2023-02-04T10:39:20.441Z,0.30
2023-02-04T10:41:50.618Z,1.00
2023-02-04T10:44:30.331Z,0.40
2023-02-04T10:47:31.326Z,1.50
2023-02-04T10:50:14.856Z,1.00
2023-02-04T10:52:46.110Z,1.30
2023-02-04T10:55:23.630Z,1.60
2023-02-04T10:57:52.877Z,0.90
2023-02-04T11:00:23.366Z,1.10
2023-02-04T11:03:04.903Z,1.60
2023-02-04T11:05:36.542Z,1.40
2023-02-04T11:08:19.651Z,1.50
2023-02-04T11:13:23.927Z,1.60
2023-02-04T11:16:14.570Z,1.20
2023-02-04T11:18:44.830Z,1.30
2023-02-04T11:21:33.700Z,0.90
2023-02-04T11:24:16.713Z,1.10
2023-02-04T11:26:51.815Z,1.10
2023-02-04T11:29:34.759Z,1.10
2023-02-04T11:32:05.256Z,0.80
2023-02-04T11:34:44.853Z,1.00
2023-02-04T11:37:17.693Z,1.00
2023-02-04T11:39:50.595Z,1.30
2023-02-04T11:42:40.917Z,1.20
2023-02-04T11:45:22.551Z,0.80
2023-02-04T11:47:51.784Z,1.20
2023-02-04T11:50:34.253Z,1.20
2023-02-04T11:53:03.253Z,1.10
2023-02-04T11:55:36.652Z,0.90
2023-02-04T11:58:13.986Z,0.80
2023-02-04T12:00:42.475Z,1.30
2023-02-04T12:03:34.354Z,1.00
2023-02-04T12:06:03.305Z,1.00
2023-02-04T12:08:33.432Z,1.10
2023-02-04T12:11:11.301Z,1.10
2023-02-04T12:13:50.214Z,0.80
2023-02-04T12:16:17.776Z,1.50
2023-02-04T12:18:45.274Z,1.60
2023-02-04T12:21:14.318Z,1.40
2023-02-04T12:23:44.750Z,1.60
2023-02-04T12:26:12.454Z,1.20
2023-02-04T12:28:39.797Z,1.10
2023-02-04T12:31:07.427Z,1.30
2023-02-04T12:33:34.866Z,1.90
2023-02-04T12:36:01.875Z,1.10
2023-02-04T12:38:30.264Z,0.90
2023-02-04T12:40:59.018Z,2.30
2023-02-04T12:45:55.924Z,1.30
2023-02-04T12:48:23.352Z,1.50
2023-02-04T12:50:50.486Z,1.00
2023-02-04T12:53:17.900Z,1.00
2023-02-04T12:55:45.024Z,1.10
2023-02-04T12:58:12.817Z,1.10
2023-02-04T13:00:40.210Z,0.50
2023-02-04T13:03:07.556Z,0.80
2023-02-04T13:05:36.137Z,0.50
2023-02-04T13:08:03.558Z,0.70
2023-02-04T13:10:30.742Z,0.30
2023-02-04T13:12:59.895Z,0.30
2023-02-04T13:15:27.491Z,0.50
2023-02-04T13:17:55.020Z,0.40
2023-02-04T13:20:22.248Z,1.00
2023-02-04T13:22:51.882Z,0.40
2023-02-04T13:25:22.974Z,-0.30
2023-02-04T13:27:50.797Z,0.10
2023-02-04T13:30:18.182Z,0.20
2023-02-04T13:32:47.997Z,-0.20
2023-02-04T13:35:15.201Z,0.20
2023-02-04T13:40:12.161Z,0.20
2023-02-04T13:42:39.460Z,0.30
2023-02-04T13:45:07.767Z,-0.10
2023-02-04T13:50:02.526Z,0.10
2023-02-04T13:52:33.548Z,0.20
2023-02-04T13:55:01.209Z,-0.10
2023-02-04T14:02:25.832Z,-0.80
2023-02-04T14:04:53.329Z,-0.40
2023-02-04T14:07:22.748Z,-0.60
2023-02-04T14:09:50.414Z,-0.40
2023-02-04T14:12:20.948Z,-0.50
2023-02-04T14:14:49.291Z,-0.90
2023-02-04T14:17:16.782Z,-0.50
2023-02-04T14:19:44.099Z,-0.70
2023-02-04T14:22:13.215Z,-0.90
2023-02-04T14:24:42.606Z,-0.50
2023-02-04T14:29:38.111Z,-0.40
2023-02-04T14:32:05.778Z,-0.40
2023-02-04T14:34:32.909Z,-0.10
2023-02-04T14:37:00.273Z,-1.10
2023-02-04T14:41:58.281Z,-0.70
2023-02-04T14:44:25.393Z,-0.50
2023-02-04T14:46:56.736Z,-0.60
2023-02-04T14:49:26.652Z,-0.30
2023-02-04T14:51:54.909Z,-0.30
2023-02-04T14:54:22.073Z,-1.00
2023-02-04T14:56:50.453Z,-0.70
2023-02-04T14:59:19.669Z,-0.30
2023-02-04T15:01:49.012Z,2.60
2023-02-04T15:06:51.029Z,-0.70
2023-02-04T15:09:18.490Z,-0.90
2023-02-04T15:11:46.012Z,-0.80
2023-02-04T15:14:13.262Z,-0.70
2023-02-04T15:19:11.216Z,-0.70
2023-02-04T15:21:38.766Z,-1.10
2023-02-04T15:29:05.370Z,-0.90
2023-02-04T15:31:32.826Z,-1.30
2023-02-04T15:34:01.288Z,-1.40
2023-02-04T15:36:28.833Z,-1.90
2023-02-04T15:41:24.454Z,-1.70
2023-02-04T15:43:51.934Z,-1.50
2023-02-04T15:46:21.046Z,-1.50
2023-02-04T15:48:49.015Z,-0.90
2023-02-04T15:51:16.638Z,-1.50
2023-02-04T15:53:43.922Z,-1.80
2023-02-04T15:56:14.474Z,-1.00
2023-02-04T15:58:41.599Z,-2.00
2023-02-04T16:01:09.171Z,-1.70
2023-02-04T16:03:36.703Z,-1.70
2023-02-04T16:06:05.270Z,-1.50
2023-02-04T16:11:00.182Z,-1.80
2023-02-04T16:13:29.869Z,-1.70
2023-02-04T16:15:57.525Z,-2.00
2023-02-04T16:20:55.837Z,-2.10
2023-02-04T16:25:52.030Z,-2.10
2023-02-04T16:28:22.743Z,-2.20
2023-02-04T16:30:53.492Z,-2.20
2023-02-04T16:33:20.680Z,-2.00
2023-02-04T16:36:00.196Z,-2.30
2023-02-04T16:38:28.147Z,-2.10
2023-02-04T16:40:55.566Z,-2.60
2023-02-04T16:43:23.773Z,-2.50
2023-02-04T16:45:52.264Z,-2.80
2023-02-04T16:48:19.500Z,-2.50
2023-02-04T16:50:46.876Z,-1.90
2023-02-04T16:53:17.092Z,-2.30
2023-02-04T16:55:45.483Z,-2.70
2023-02-04T16:58:14.310Z,-2.70
2023-02-04T17:00:43.466Z,-2.30
2023-02-04T17:03:12.427Z,-1.50
2023-02-04T17:05:40.808Z,-2.60
2023-02-04T17:08:08.659Z,-2.60
2023-02-04T17:11:13.188Z,-2.70
2023-02-04T17:13:42.117Z,-1.80
2023-02-04T17:18:37.257Z,-2.50
2023-02-04T17:21:05.933Z,-2.50
2023-02-04T17:26:00.699Z,-1.70
2023-02-04T17:28:27.741Z,-2.10
2023-02-04T17:30:55.120Z,-2.40
2023-02-04T17:35:50.418Z,-2.30
2023-02-04T17:38:17.463Z,-2.10
2023-02-04T17:40:44.875Z,-1.50
2023-02-04T17:43:12.089Z,-2.20
2023-02-04T17:45:39.623Z,-2.40
2023-02-04T17:48:06.750Z,-1.70
2023-02-04T17:53:11.855Z,-2.20
2023-02-04T17:55:39.899Z,-1.60
2023-02-04T17:58:14.607Z,-1.60
2023-02-04T18:00:45.045Z,-2.10
2023-02-04T18:03:14.598Z,-2.00
2023-02-04T18:05:50.234Z,-2.30
2023-02-04T18:08:21.708Z,-2.00
2023-02-04T18:10:51.224Z,-1.70
2023-02-04T18:13:25.463Z,-2.30
2023-02-04T18:15:56.240Z,-2.30
2023-02-04T18:18:26.026Z,-1.80
2023-02-04T18:21:21.973Z,-1.30
2023-02-04T18:24:09.274Z,-2.00
2023-02-04T18:26:46.899Z,-2.00
2023-02-04T18:29:35.580Z,-1.60
2023-02-04T18:32:25.805Z,-1.80
2023-02-04T18:34:55.223Z,-2.10
2023-02-04T18:37:46.677Z,-1.90
2023-02-04T18:40:27.635Z,-2.00
2023-02-04T18:43:50.980Z,-1.90
2023-02-04T18:46:31.349Z,-1.40
2023-02-04T18:49:03.206Z,-1.90
2023-02-04T18:51:33.356Z,-1.90
2023-02-04T18:54:18.514Z,-1.70
2023-02-04T18:56:48.328Z,-1.70
2023-02-04T18:59:18.058Z,-2.00
2023-02-04T19:01:47.713Z,-2.00
2023-02-04T19:04:22.445Z,-1.80
2023-02-04T19:06:52.286Z,-1.70
2023-02-04T19:09:26.797Z,-2.50
2023-02-04T19:11:56.389Z,-2.40
2023-02-04T19:14:39.076Z,-2.70
2023-02-04T19:17:27.128Z,-2.30
2023-02-04T19:19:57.868Z,-1.60
2023-02-04T19:22:46.097Z,-2.40
2023-02-04T19:25:22.620Z,-1.50
2023-02-04T19:27:58.584Z,-2.40
2023-02-04T19:30:29.495Z,-2.10
2023-02-04T19:33:13.891Z,-2.30
2023-02-04T19:35:46.751Z,-2.70
2023-02-04T19:38:41.192Z,-2.50
2023-02-04T19:41:33.323Z,-2.70
2023-02-04T19:44:12.615Z,-2.70
2023-02-04T19:46:41.186Z,-2.20
2023-02-04T19:49:29.451Z,-2.70
2023-02-04T19:51:58.735Z,-2.70
2023-02-04T19:54:38.756Z,-3.10
2023-02-04T19:57:21.882Z,-3.00
2023-02-04T19:59:49.028Z,-3.10
2023-02-04T20:02:19.586Z,-3.00
2023-02-04T20:04:50.058Z,-2.80
2023-02-04T20:07:24.087Z,-3.10
2023-02-04T20:10:02.620Z,-3.10
2023-02-04T20:12:32.198Z,-3.20
2023-02-04T20:15:02.470Z,-3.00
2023-02-04T20:17:41.362Z,-2.80
2023-02-04T20:20:29.909Z,-2.60
2023-02-04T20:23:02.359Z,-2.80
2023-02-04T20:25:48.761Z,-2.70
2023-02-04T20:28:16.606Z,-2.90
2023-02-04T20:33:28.181Z,-3.20
2023-02-04T20:36:23.382Z,-3.50
2023-02-04T20:41:21.190Z,-3.00
2023-02-04T20:43:51.672Z,-2.90
2023-02-04T20:46:25.748Z,-3.40
2023-02-04T20:51:23.550Z,-3.10
2023-02-04T20:53:57.476Z,-3.20
2023-02-04T20:56:40.642Z,-3.40
2023-02-04T20:59:30.327Z,-3.40
2023-02-04T21:04:43.971Z,-3.50
2023-02-04T21:07:19.615Z,-3.50
2023-02-04T21:09:48.214Z,-3.70
2023-02-04T21:12:17.821Z,-3.80
2023-02-04T21:14:45.122Z,-3.70
2023-02-04T21:17:14.153Z,-3.00
2023-02-04T21:19:41.474Z,-3.80
2023-02-04T21:22:08.617Z,-4.20
2023-02-04T21:24:39.420Z,-3.80
2023-02-04T21:27:06.438Z,-3.80
2023-02-04T21:29:33.816Z,-4.10
2023-02-04T21:32:00.918Z,-4.00
2023-02-04T21:39:24.876Z,-3.20
2023-02-04T21:42:10.166Z,-4.00
2023-02-04T21:49:34.127Z,-4.10
2023-02-04T21:52:01.217Z,-4.10
2023-02-04T21:54:28.557Z,-4.30
2023-02-04T21:57:01.936Z,-4.30
2023-02-04T21:59:29.270Z,-4.20
2023-02-04T22:01:56.579Z,-4.50
2023-02-04T22:04:23.919Z,-4.40
2023-02-04T22:06:50.919Z,-4.40
2023-02-04T22:09:20.632Z,-4.40
2023-02-04T22:11:48.618Z,-4.60
2023-02-04T22:14:21.502Z,-4.50
2023-02-04T22:16:50.959Z,-4.60
2023-02-04T22:19:19.741Z,-4.50
2023-02-04T22:21:46.897Z,-4.50
2023-02-04T22:24:14.218Z,-4.60
2023-02-04T22:29:09.087Z,-4.90
2023-02-04T22:31:36.235Z,-4.70
2023-02-04T22:34:05.510Z,-4.80
2023-02-04T22:36:32.500Z,-4.70
2023-02-04T22:38:59.816Z,-4.80
2023-02-04T22:41:26.855Z,-5.00
2023-02-04T22:43:54.199Z,-5.50
2023-02-04T22:46:22.904Z,-4.90
2023-02-04T22:48:50.373Z,-5.10
2023-02-04T22:51:17.461Z,-5.10
2023-02-04T22:53:44.711Z,-5.10
2023-02-04T22:56:11.782Z,-5.10
2023-02-04T22:58:40.550Z,-5.30
2023-02-04T23:01:07.723Z,-5.40
2023-02-04T23:06:03.830Z,-5.00
2023-02-04T23:08:31.415Z,-5.40
2023-02-04T23:10:58.602Z,-5.10
2023-02-04T23:13:26.489Z,-5.40
2023-02-04T23:15:56.598Z,-5.60
2023-02-04T23:18:24.030Z,-4.90
2023-02-04T23:20:51.073Z,-5.70
2023-02-04T23:23:19.063Z,-5.40
2023-02-04T23:25:49.729Z,-5.60
2023-02-04T23:28:17.141Z,-5.50
2023-02-04T23:30:44.209Z,-5.60
2023-02-04T23:33:11.529Z,-5.70
2023-02-04T23:35:39.053Z,-5.70
2023-02-04T23:38:07.123Z,-5.40
2023-02-04T23:40:34.384Z,-5.90
2023-02-04T23:43:02.038Z,-6.10
2023-02-04T23:45:29.166Z,-6.00
2023-02-04T23:47:56.504Z,-6.10
2023-02-04T23:50:23.634Z,-6.30
2023-02-04T23:52:51.088Z,-6.00
2023-02-04T23:57:49.613Z,-6.30
